Time;durP1;ratioP1;P1;durP2;ratioP2;P2;SDS_P1;SDS_P2;PMS_P1;PMS_P2;Temp;Humidity;BMP_temperature;BMP_pressure;BME280_temperature;BME280_humidity;BME280_pressure;Samples;Min_cycle;Max_cycle;Signal;HPM_P1;HPM_P2
2022/11/19 00:01:39;;;;;;;5.10;3.30;;;;;;;;;;4997018;28;20477;-89
2022/11/19 00:04:08;;;;;;;6.60;3.40;;;;;;;;;;4996919;28;20411;-92
2022/11/19 00:06:34;;;;;;;5.30;3.57;;;;;;;;;;4978943;28;20425;-90
2022/11/19 00:09:00;;;;;;;3.97;3.50;;;;;;;;;;4996615;28;20809;-92
2022/11/19 00:14:12;;;;;;;10.33;5.87;;;;;;;;;;5004576;28;20449;-86
2022/11/19 00:16:38;;;;;;;9.70;3.80;;;;;;;;;;4997420;28;20424;-90
2022/11/19 00:19:04;;;;;;;4.80;3.73;;;;;;;;;;4979415;28;20419;-86
2022/11/19 00:21:33;;;;;;;5.37;3.17;;;;;;;;;;4978576;28;20985;-87
2022/11/19 00:23:59;;;;;;;6.00;4.80;;;;;;;;;;4996147;28;20440;-87
2022/11/19 00:26:24;;;;;;;7.33;4.10;;;;;;;;;;4978103;28;20438;-86
2022/11/19 00:28:50;;;;;;;9.03;5.53;;;;;;;;;;4995555;28;20413;-86
2022/11/19 00:31:17;;;;;;;5.80;5.03;;;;;;;;;;4995428;28;20426;-91
2022/11/19 00:33:44;;;;;;;10.20;5.97;;;;;;;;;;4995630;28;20419;-85
2022/11/19 00:36:11;;;;;;;9.13;4.47;;;;;;;;;;4978347;28;20615;-87
2022/11/19 00:38:37;;;;;;;7.70;4.53;;;;;;;;;;4995492;28;20481;-89
2022/11/19 00:41:03;;;;;;;7.10;5.17;;;;;;;;;;4994990;28;20477;-86
2022/11/19 00:43:48;;;;;;;5.47;4.57;;;;;;;;;;4995297;28;20423;-91
2022/11/19 00:46:14;;;;;;;5.43;3.87;;;;;;;;;;4977625;28;20418;-89
2022/11/19 00:48:43;;;;;;;7.40;5.23;;;;;;;;;;4995102;28;20428;-86
2022/11/19 00:51:09;;;;;;;7.40;5.60;;;;;;;;;;4995371;28;20415;-87
2022/11/19 00:53:35;;;;;;;5.90;4.00;;;;;;;;;;4978495;28;20513;-91
2022/11/19 00:56:02;;;;;;;5.37;3.53;;;;;;;;;;4996889;28;20414;-87
2022/11/19 00:58:28;;;;;;;4.50;4.10;;;;;;;;;;4979431;28;20540;-84
2022/11/19 01:00:54;;;;;;;4.37;3.00;;;;;;;;;;5006848;28;20473;-84
2022/11/19 01:03:21;;;;;;;8.70;5.00;;;;;;;;;;5014838;28;20418;-84
2022/11/19 01:05:47;;;;;;;4.43;4.00;;;;;;;;;;5014266;28;20882;-84
2022/11/19 01:08:13;;;;;;;5.43;4.57;;;;;;;;;;5014887;28;20420;-89
2022/11/19 01:10:39;;;;;;;4.47;3.23;;;;;;;;;;5014485;28;20500;-87
2022/11/19 01:15:50;;;;;;;8.77;4.30;;;;;;;;;;5014570;28;20406;-90
2022/11/19 01:18:17;;;;;;;5.90;4.03;;;;;;;;;;5013842;28;20878;-90
2022/11/19 01:20:43;;;;;;;4.70;3.13;;;;;;;;;;5013937;28;20437;-85
2022/11/19 01:23:09;;;;;;;5.90;4.30;;;;;;;;;;4996484;28;20459;-87
2022/11/19 01:25:35;;;;;;;3.70;3.37;;;;;;;;;;4996002;28;20980;-85
2022/11/19 01:28:01;;;;;;;5.87;4.03;;;;;;;;;;5013928;28;20421;-84
2022/11/19 01:30:27;;;;;;;4.97;3.70;;;;;;;;;;4996317;28;20421;-83
2022/11/19 01:32:53;;;;;;;5.03;3.80;;;;;;;;;;4996181;28;20421;-83
2022/11/19 01:35:19;;;;;;;6.50;4.03;;;;;;;;;;4996330;28;20555;-87
2022/11/19 01:37:45;;;;;;;5.73;3.67;;;;;;;;;;4996233;28;20513;-84
2022/11/19 01:40:11;;;;;;;5.77;4.50;;;;;;;;;;4995776;28;21052;-84
2022/11/19 01:42:49;;;;;;;5.27;4.73;;;;;;;;;;5013545;28;20472;-88
2022/11/19 01:45:27;;;;;;;13.67;4.60;;;;;;;;;;4996043;28;20889;-83
2022/11/19 01:47:54;;;;;;;5.47;4.27;;;;;;;;;;4996072;28;20737;-85
2022/11/19 01:50:21;;;;;;;8.00;4.43;;;;;;;;;;5013439;28;20440;-83
2022/11/19 01:52:48;;;;;;;9.63;4.20;;;;;;;;;;4995972;28;20413;-88
2022/11/19 01:55:14;;;;;;;5.77;4.00;;;;;;;;;;4995476;28;20429;-88
2022/11/19 01:57:40;;;;;;;5.80;3.60;;;;;;;;;;5013583;28;20413;-90
2022/11/19 02:00:07;;;;;;;5.63;3.97;;;;;;;;;;5013556;28;20412;-88
2022/11/19 02:02:33;;;;;;;4.73;3.50;;;;;;;;;;5013395;28;20981;-88
2022/11/19 02:05:00;;;;;;;9.73;3.93;;;;;;;;;;4995753;28;20487;-86
2022/11/19 02:07:28;;;;;;;6.90;4.80;;;;;;;;;;5013234;28;20963;-88
2022/11/19 02:09:58;;;;;;;8.57;4.60;;;;;;;;;;4995622;28;20428;-86
2022/11/19 02:12:33;;;;;;;7.37;3.70;;;;;;;;;;4995921;28;20422;-86
2022/11/19 02:15:13;;;;;;;5.73;3.13;;;;;;;;;;4974301;28;20417;-88
2022/11/19 02:17:42;;;;;;;4.50;3.40;;;;;;;;;;4957120;28;20423;-86
2022/11/19 02:20:27;;;;;;;6.97;4.37;;;;;;;;;;4956768;28;20503;-86
2022/11/19 02:23:08;;;;;;;4.57;3.50;;;;;;;;;;4974222;28;20476;-87
2022/11/19 02:25:49;;;;;;;3.87;2.33;;;;;;;;;;4956652;28;20511;-88
2022/11/19 02:28:28;;;;;;;4.40;2.37;;;;;;;;;;4957127;28;20466;-86
2022/11/19 02:31:01;;;;;;;3.40;2.67;;;;;;;;;;4960161;28;20437;-88
2022/11/19 02:33:43;;;;;;;3.30;2.73;;;;;;;;;;4980520;28;20462;-93
2022/11/19 02:36:16;;;;;;;3.00;2.47;;;;;;;;;;4962582;28;20432;-89
2022/11/19 02:38:57;;;;;;;4.63;2.90;;;;;;;;;;4979593;28;20757;-89
2022/11/19 02:41:35;;;;;;;3.20;2.87;;;;;;;;;;4962125;28;20993;-91
2022/11/19 02:46:52;;;;;;;5.53;2.90;;;;;;;;;;4979814;28;20483;-88
2022/11/19 02:49:19;;;;;;;3.97;2.17;;;;;;;;;;4962862;28;20443;-88
2022/11/19 02:51:45;;;;;;;2.90;1.77;;;;;;;;;;4979503;28;20419;-87
2022/11/19 02:54:11;;;;;;;4.83;3.13;;;;;;;;;;4961597;28;20417;-89
2022/11/19 02:56:53;;;;;;;5.57;3.17;;;;;;;;;;4960969;28;20461;-90
2022/11/19 03:04:57;;;;;;;4.00;3.00;;;;;;;;;;4978708;28;20457;-90
2022/11/19 03:07:23;;;;;;;4.53;4.00;;;;;;;;;;4960977;28;20445;-88
2022/11/19 03:09:59;;;;;;;4.70;2.90;;;;;;;;;;4960577;28;20965;-89
2022/11/19 03:12:40;;;;;;;6.50;3.47;;;;;;;;;;4960345;28;20432;-88
2022/11/19 03:18:18;;;;;;;6.03;3.87;;;;;;;;;;4978084;28;20408;-90
2022/11/19 03:20:54;;;;;;;6.40;3.30;;;;;;;;;;4977603;28;20414;-88
2022/11/19 03:23:34;;;;;;;4.90;2.77;;;;;;;;;;4960328;28;20508;-87
2022/11/19 03:26:04;;;;;;;4.73;3.73;;;;;;;;;;4977200;28;20397;-88
2022/11/19 03:28:33;;;;;;;3.90;2.40;;;;;;;;;;4977556;28;20408;-87
2022/11/19 03:31:00;;;;;;;4.30;3.10;;;;;;;;;;4959753;28;20418;-87
2022/11/19 03:33:29;;;;;;;5.50;2.77;;;;;;;;;;4977171;28;20418;-85
2022/11/19 03:35:58;;;;;;;6.37;3.53;;;;;;;;;;4977129;28;20409;-85
2022/11/19 03:38:27;;;;;;;5.00;3.43;;;;;;;;;;4977134;28;20411;-84
2022/11/19 03:40:54;;;;;;;6.17;4.10;;;;;;;;;;4976354;28;20539;-84
2022/11/19 03:43:21;;;;;;;2.87;2.20;;;;;;;;;;4959041;28;20516;-87
2022/11/19 03:45:48;;;;;;;10.70;4.10;;;;;;;;;;4977109;28;20814;-86
2022/11/19 03:48:16;;;;;;;5.00;2.90;;;;;;;;;;4976890;28;20856;-87
2022/11/19 03:50:42;;;;;;;5.83;3.60;;;;;;;;;;4977060;28;20484;-86
2022/11/19 03:53:08;;;;;;;4.00;3.07;;;;;;;;;;4976761;28;20452;-86
2022/11/19 03:55:35;;;;;;;2.80;1.80;;;;;;;;;;4976462;28;20418;-87
2022/11/19 03:58:03;;;;;;;5.30;2.90;;;;;;;;;;4976802;28;20418;-84
2022/11/19 04:00:28;;;;;;;3.53;3.23;;;;;;;;;;4977342;28;20421;-86
2022/11/19 04:02:54;;;;;;;6.23;4.10;;;;;;;;;;4960184;28;20474;-85
2022/11/19 04:05:20;;;;;;;4.40;3.07;;;;;;;;;;4960337;28;20465;-85
2022/11/19 04:07:46;;;;;;;5.67;3.60;;;;;;;;;;4976713;28;20423;-85
2022/11/19 04:10:12;;;;;;;4.20;2.97;;;;;;;;;;4976109;28;20420;-84
2022/11/19 04:12:38;;;;;;;5.50;2.80;;;;;;;;;;4976359;28;20424;-84
2022/11/19 04:15:04;;;;;;;3.33;2.17;;;;;;;;;;4979103;28;20464;-86
2022/11/19 04:17:30;;;;;;;3.70;2.60;;;;;;;;;;4976558;28;20427;-87
2022/11/19 04:19:56;;;;;;;5.37;2.50;;;;;;;;;;4959082;28;20939;-85
2022/11/19 04:22:22;;;;;;;7.13;2.90;;;;;;;;;;4975996;28;20475;-84
2022/11/19 04:24:48;;;;;;;3.97;2.77;;;;;;;;;;4975604;28;20404;-83
2022/11/19 04:27:14;;;;;;;6.53;3.67;;;;;;;;;;4995022;28;20415;-84
2022/11/19 04:29:39;;;;;;;5.43;2.97;;;;;;;;;;5015231;28;20404;-84
2022/11/19 04:32:05;;;;;;;3.60;2.37;;;;;;;;;;5015016;28;20932;-86
2022/11/19 04:34:31;;;;;;;3.03;2.70;;;;;;;;;;5015039;28;20491;-84
2022/11/19 04:36:57;;;;;;;3.13;2.50;;;;;;;;;;4997616;28;20440;-88
2022/11/19 04:39:23;;;;;;;5.93;3.20;;;;;;;;;;5014553;28;20432;-87
2022/11/19 04:41:49;;;;;;;7.17;3.97;;;;;;;;;;5015018;28;20470;-84
2022/11/19 04:44:15;;;;;;;3.07;2.30;;;;;;;;;;5014852;28;20460;-89
2022/11/19 04:46:41;;;;;;;4.17;3.10;;;;;;;;;;4997172;28;20416;-85
2022/11/19 04:49:07;;;;;;;5.33;2.00;;;;;;;;;;5014998;28;20740;-85
2022/11/19 04:51:33;;;;;;;5.67;2.97;;;;;;;;;;5014626;28;20408;-87
2022/11/19 04:53:59;;;;;;;5.50;4.03;;;;;;;;;;4995650;28;20451;-88
2022/11/19 04:56:25;;;;;;;4.13;3.30;;;;;;;;;;4997141;28;20418;-89
2022/11/19 04:58:50;;;;;;;5.90;2.13;;;;;;;;;;5014540;28;20904;-85
2022/11/19 05:01:19;;;;;;;6.27;4.30;;;;;;;;;;4997053;28;20483;-84
2022/11/19 05:03:45;;;;;;;6.13;3.93;;;;;;;;;;4996955;28;20417;-85
2022/11/19 05:06:11;;;;;;;4.70;3.93;;;;;;;;;;4997422;28;20620;-83
2022/11/19 05:08:36;;;;;;;3.67;2.43;;;;;;;;;;5014951;28;20415;-87
2022/11/19 05:11:02;;;;;;;11.53;3.37;;;;;;;;;;5015389;28;20432;-87
2022/11/19 05:13:28;;;;;;;3.67;3.10;;;;;;;;;;5014706;28;20424;-84
2022/11/19 05:15:57;;;;;;;9.53;3.47;;;;;;;;;;5015502;28;20424;-84
2022/11/19 05:18:29;;;;;;;4.93;3.60;;;;;;;;;;5013997;28;20815;-85
2022/11/19 05:20:55;;;;;;;5.43;3.07;;;;;;;;;;5014162;28;20411;-87
2022/11/19 05:23:21;;;;;;;4.40;3.57;;;;;;;;;;5013704;28;20916;-92
2022/11/19 05:25:47;;;;;;;5.40;4.50;;;;;;;;;;5014079;28;20520;-85
2022/11/19 05:28:13;;;;;;;6.27;4.10;;;;;;;;;;5015254;28;20452;-84
2022/11/19 05:30:39;;;;;;;4.93;3.90;;;;;;;;;;5014791;28;20415;-85
2022/11/19 05:33:05;;;;;;;4.57;3.03;;;;;;;;;;5014545;28;20514;-91
2022/11/19 05:35:31;;;;;;;4.50;3.33;;;;;;;;;;5014449;28;20454;-90
2022/11/19 05:37:57;;;;;;;2.57;2.33;;;;;;;;;;5013762;28;20852;-85
2022/11/19 05:40:23;;;;;;;5.90;3.83;;;;;;;;;;5013225;28;20500;-87
2022/11/19 05:42:49;;;;;;;5.53;3.90;;;;;;;;;;5013736;28;20842;-85
2022/11/19 05:45:15;;;;;;;2.60;2.40;;;;;;;;;;5013741;28;20467;-84
2022/11/19 05:47:41;;;;;;;3.93;3.63;;;;;;;;;;4996072;28;20512;-89
2022/11/19 05:50:07;;;;;;;4.20;3.80;;;;;;;;;;5013759;28;20818;-85
2022/11/19 05:52:33;;;;;;;7.73;4.07;;;;;;;;;;5013742;28;20406;-86
2022/11/19 05:54:59;;;;;;;6.87;3.37;;;;;;;;;;4995755;28;20430;-85
2022/11/19 05:57:25;;;;;;;4.73;3.50;;;;;;;;;;5013611;28;20906;-85
2022/11/19 05:59:51;;;;;;;5.47;3.90;;;;;;;;;;5013723;28;20408;-90
2022/11/19 06:02:17;;;;;;;3.50;3.20;;;;;;;;;;4996645;28;20472;-86
2022/11/19 06:04:43;;;;;;;4.30;3.60;;;;;;;;;;5014272;28;20458;-91
2022/11/19 06:07:09;;;;;;;4.10;3.00;;;;;;;;;;5014168;28;20414;-91
2022/11/19 06:09:35;;;;;;;5.37;3.53;;;;;;;;;;4996502;28;20433;-90
2022/11/19 06:12:01;;;;;;;9.27;4.77;;;;;;;;;;4997006;28;20419;-91
2022/11/19 06:14:27;;;;;;;8.13;3.70;;;;;;;;;;5014119;28;20925;-91
2022/11/19 06:16:54;;;;;;;7.80;4.20;;;;;;;;;;4996986;28;20414;-91
2022/11/19 06:19:21;;;;;;;7.00;4.47;;;;;;;;;;5014118;28;20433;-84
2022/11/19 06:21:47;;;;;;;5.60;3.40;;;;;;;;;;5015268;28;20480;-83
2022/11/19 06:24:13;;;;;;;1.90;1.70;;;;;;;;;;5013242;28;20420;-91
2022/11/19 06:26:39;;;;;;;6.07;3.40;;;;;;;;;;4996687;28;20429;-90
2022/11/19 06:29:05;;;;;;;4.50;4.00;;;;;;;;;;5014442;28;20411;-91
2022/11/19 06:31:32;;;;;;;4.80;3.50;;;;;;;;;;5014065;28;20963;-89
2022/11/19 06:33:57;;;;;;;7.87;4.27;;;;;;;;;;5014050;28;20422;-90
2022/11/19 06:36:24;;;;;;;5.77;2.37;;;;;;;;;;5014110;28;20406;-90
2022/11/19 06:38:50;;;;;;;5.77;3.80;;;;;;;;;;5013891;28;20513;-90
2022/11/19 06:41:16;;;;;;;4.53;3.67;;;;;;;;;;4996326;28;21035;-88
2022/11/19 06:43:42;;;;;;;7.10;3.63;;;;;;;;;;4996503;28;20468;-91
2022/11/19 06:46:08;;;;;;;4.43;3.30;;;;;;;;;;4996668;28;20414;-89
2022/11/19 06:48:34;;;;;;;3.60;3.07;;;;;;;;;;5014189;28;20431;-89
2022/11/19 06:51:00;;;;;;;8.13;3.87;;;;;;;;;;5013912;28;20416;-86
2022/11/19 06:53:26;;;;;;;5.87;3.87;;;;;;;;;;4995678;28;20418;-86
2022/11/19 06:56:02;;;;;;;6.87;3.27;;;;;;;;;;4996381;28;20421;-89
2022/11/19 06:58:29;;;;;;;3.00;2.57;;;;;;;;;;5013965;28;20483;-89
2022/11/19 07:00:55;;;;;;;4.93;3.50;;;;;;;;;;5013387;28;20907;-85
2022/11/19 07:03:21;;;;;;;6.23;2.93;;;;;;;;;;5013860;28;20439;-87
2022/11/19 07:05:47;;;;;;;3.50;3.20;;;;;;;;;;5014118;28;20494;-89
2022/11/19 07:08:14;;;;;;;4.70;2.73;;;;;;;;;;5013975;28;20905;-90
2022/11/19 07:10:40;;;;;;;3.67;2.40;;;;;;;;;;4996299;28;20511;-83
2022/11/19 07:13:06;;;;;;;5.10;3.23;;;;;;;;;;5013984;28;20456;-91
2022/11/19 07:15:31;;;;;;;4.50;3.47;;;;;;;;;;4997092;28;20424;-90
2022/11/19 07:17:57;;;;;;;5.67;3.33;;;;;;;;;;5016233;28;20436;-93
2022/11/19 07:20:23;;;;;;;3.50;3.20;;;;;;;;;;5017618;28;20410;-92
2022/11/19 07:22:49;;;;;;;3.80;3.40;;;;;;;;;;5000307;28;20980;-91
2022/11/19 07:25:15;;;;;;;4.77;3.17;;;;;;;;;;5017094;28;20452;-89
2022/11/19 07:27:45;;;;;;;4.53;3.67;;;;;;;;;;5000762;28;20424;-86
2022/11/19 07:30:12;;;;;;;2.80;2.07;;;;;;;;;;4999696;28;20412;-91
2022/11/19 07:32:38;;;;;;;3.90;3.07;;;;;;;;;;5000223;28;20917;-92
2022/11/19 07:35:04;;;;;;;3.53;3.23;;;;;;;;;;5017526;28;20413;-86
2022/11/19 07:37:30;;;;;;;4.23;2.73;;;;;;;;;;5017344;28;20472;-91
2022/11/19 07:39:56;;;;;;;4.40;2.90;;;;;;;;;;5016806;28;20466;-90
2022/11/19 07:45:06;;;;;;;5.03;2.83;;;;;;;;;;5015783;28;20902;-85
2022/11/19 07:47:33;;;;;;;3.93;2.30;;;;;;;;;;4998478;28;20440;-85
2022/11/19 07:49:59;;;;;;;6.90;4.23;;;;;;;;;;4998190;28;20425;-82
2022/11/19 07:52:25;;;;;;;6.30;4.20;;;;;;;;;;4998212;28;20768;-84
2022/11/19 07:54:50;;;;;;;10.17;3.83;;;;;;;;;;5015075;28;20410;-83
2022/11/19 07:57:16;;;;;;;4.67;3.40;;;;;;;;;;5015430;28;20418;-83
2022/11/19 07:59:42;;;;;;;3.60;2.23;;;;;;;;;;5015553;28;20783;-83
2022/11/19 08:02:15;;;;;;;5.83;4.43;;;;;;;;;;4997557;28;20997;-82
2022/11/19 08:04:41;;;;;;;4.90;3.13;;;;;;;;;;5015299;28;20410;-84
2022/11/19 08:07:07;;;;;;;5.83;4.40;;;;;;;;;;5015325;28;20886;-84
2022/11/19 08:09:33;;;;;;;7.63;3.97;;;;;;;;;;5015025;28;20504;-84
2022/11/19 08:11:59;;;;;;;5.73;5.13;;;;;;;;;;5015295;28;20830;-84
2022/11/19 08:14:25;;;;;;;6.03;4.47;;;;;;;;;;5015193;28;20406;-83
2022/11/19 08:19:36;;;;;;;6.20;5.23;;;;;;;;;;5015132;28;20405;-83
2022/11/19 08:22:02;;;;;;;8.87;5.00;;;;;;;;;;5015036;28;20534;-83
2022/11/19 08:24:28;;;;;;;7.23;5.10;;;;;;;;;;5014677;28;20458;-83
2022/11/19 08:26:54;;;;;;;7.80;3.53;;;;;;;;;;5015112;28;20428;-83
2022/11/19 08:29:22;;;;;;;5.00;4.07;;;;;;;;;;5014851;28;20441;-85
2022/11/19 08:31:49;;;;;;;6.37;4.07;;;;;;;;;;5015009;28;20422;-85
2022/11/19 08:34:15;;;;;;;5.00;2.60;;;;;;;;;;5015455;28;20414;-84
2022/11/19 08:36:42;;;;;;;6.30;4.23;;;;;;;;;;5015409;28;20433;-86
2022/11/19 08:39:08;;;;;;;5.33;4.03;;;;;;;;;;5014822;28;20425;-86
2022/11/19 08:44:19;;;;;;;5.27;3.60;;;;;;;;;;5015049;28;20410;-86
2022/11/19 08:46:44;;;;;;;8.13;4.83;;;;;;;;;;5015065;28;20894;-87
2022/11/19 08:49:11;;;;;;;5.90;3.87;;;;;;;;;;5014947;28;20430;-88
2022/11/19 08:51:37;;;;;;;6.37;3.53;;;;;;;;;;5015015;28;20539;-87
2022/11/19 08:54:02;;;;;;;6.40;3.80;;;;;;;;;;5014646;28;20504;-87
2022/11/19 08:56:28;;;;;;;7.53;3.70;;;;;;;;;;4997413;28;20430;-84
2022/11/19 08:58:54;;;;;;;4.40;3.27;;;;;;;;;;5014701;28;20411;-87
2022/11/19 09:01:20;;;;;;;9.00;4.37;;;;;;;;;;5014635;28;20943;-85
2022/11/19 09:03:46;;;;;;;5.57;2.90;;;;;;;;;;4997082;28;20955;-86
2022/11/19 09:06:12;;;;;;;5.33;2.40;;;;;;;;;;5014714;28;20883;-86
2022/11/19 09:08:39;;;;;;;4.50;3.03;;;;;;;;;;5014277;28;20422;-85
2022/11/19 09:11:06;;;;;;;5.00;3.63;;;;;;;;;;4996958;28;20422;-87
2022/11/19 09:13:32;;;;;;;3.70;1.83;;;;;;;;;;5014494;28;20470;-86
2022/11/19 09:15:58;;;;;;;5.30;2.97;;;;;;;;;;4997040;28;20774;-84
2022/11/19 09:18:24;;;;;;;6.33;3.30;;;;;;;;;;5014289;28;20407;-87
2022/11/19 09:20:54;;;;;;;14.87;3.20;;;;;;;;;;5014289;28;20460;-86
2022/11/19 09:23:20;;;;;;;3.63;2.33;;;;;;;;;;4996347;28;20424;-87
2022/11/19 09:25:54;;;;;;;4.90;2.87;;;;;;;;;;4996699;28;21118;-86
2022/11/19 09:28:20;;;;;;;5.03;2.13;;;;;;;;;;5014056;28;20889;-88
2022/11/19 09:30:53;;;;;;;4.13;2.53;;;;;;;;;;5013907;28;20442;-88
2022/11/19 09:33:19;;;;;;;3.57;2.03;;;;;;;;;;5013858;28;20190;-85
2022/11/19 09:35:45;;;;;;;4.20;2.30;;;;;;;;;;5014175;28;20499;-87
2022/11/19 09:38:11;;;;;;;4.20;2.07;;;;;;;;;;5013768;28;20647;-89
2022/11/19 09:40:37;;;;;;;5.43;2.83;;;;;;;;;;4995682;28;20235;-89
2022/11/19 09:43:09;;;;;;;6.03;2.80;;;;;;;;;;5013867;28;20512;-89
2022/11/19 09:46:00;;;;;;;3.43;2.00;;;;;;;;;;5014167;28;20411;-89
2022/11/19 09:48:35;;;;;;;4.63;2.50;;;;;;;;;;5014068;28;20411;-89
2022/11/19 09:51:08;;;;;;;4.40;2.00;;;;;;;;;;4996567;28;20407;-87
2022/11/19 09:53:38;;;;;;;4.47;2.67;;;;;;;;;;5014032;28;20471;-89
2022/11/19 09:56:05;;;;;;;5.47;2.63;;;;;;;;;;4997050;28;20411;-86
2022/11/19 09:58:48;;;;;;;4.77;2.90;;;;;;;;;;5014111;28;20502;-88
2022/11/19 10:01:16;;;;;;;4.40;2.57;;;;;;;;;;5013836;28;20458;-86
2022/11/19 10:03:45;;;;;;;6.50;3.10;;;;;;;;;;5014121;28;20450;-86
2022/11/19 10:06:11;;;;;;;5.00;2.23;;;;;;;;;;4996630;28;20425;-86
2022/11/19 10:08:56;;;;;;;5.57;3.30;;;;;;;;;;5013594;28;20422;-88
2022/11/19 10:11:44;;;;;;;3.63;2.37;;;;;;;;;;5014059;28;20446;-87
2022/11/19 10:14:16;;;;;;;6.30;2.23;;;;;;;;;;5013758;28;20771;-88
2022/11/19 10:16:42;;;;;;;4.43;2.03;;;;;;;;;;5001378;28;20951;-86
2022/11/19 10:19:19;;;;;;;3.33;1.80;;;;;;;;;;5000354;28;20436;-87
2022/11/19 10:21:51;;;;;;;3.37;1.27;;;;;;;;;;5028114;28;20922;-84
2022/11/19 10:24:24;;;;;;;3.10;1.30;;;;;;;;;;5000271;28;20426;-86
2022/11/19 10:26:57;;;;;;;2.87;1.80;;;;;;;;;;4996366;28;20437;-87
2022/11/19 10:29:25;;;;;;;3.57;2.90;;;;;;;;;;4996187;28;20424;-88
2022/11/19 10:31:51;;;;;;;2.40;1.43;;;;;;;;;;5013671;28;20418;-89
2022/11/19 10:34:26;;;;;;;3.60;1.77;;;;;;;;;;5013612;28;20414;-88
2022/11/19 10:36:51;;;;;;;3.17;1.73;;;;;;;;;;5013381;28;20754;-85
2022/11/19 10:39:37;;;;;;;3.93;1.73;;;;;;;;;;4995136;28;20436;-88
2022/11/19 10:42:19;;;;;;;4.33;1.70;;;;;;;;;;4995516;28;20258;-86
2022/11/19 10:44:54;;;;;;;4.37;1.60;;;;;;;;;;4995961;28;20457;-85
2022/11/19 10:47:28;;;;;;;4.10;1.33;;;;;;;;;;4995609;28;20435;-85
2022/11/19 10:49:54;;;;;;;4.60;2.50;;;;;;;;;;5013141;28;20448;-87
2022/11/19 10:52:20;;;;;;;3.20;1.90;;;;;;;;;;5016165;28;20571;-86
2022/11/19 10:54:47;;;;;;;3.40;1.37;;;;;;;;;;4999417;28;20931;-85
2022/11/19 10:57:16;;;;;;;3.03;2.30;;;;;;;;;;5017099;28;20231;-83
2022/11/19 10:59:43;;;;;;;2.20;1.10;;;;;;;;;;5016696;28;20452;-85
2022/11/19 11:02:28;;;;;;;2.60;1.37;;;;;;;;;;4999051;28;21001;-84
2022/11/19 11:05:14;;;;;;;10.20;2.43;;;;;;;;;;5016750;28;20401;-87
2022/11/19 11:07:51;;;;;;;2.47;1.20;;;;;;;;;;4999023;28;20775;-87
2022/11/19 11:10:25;;;;;;;2.70;1.50;;;;;;;;;;5016607;28;20913;-85
2022/11/19 11:15:43;;;;;;;2.90;1.43;;;;;;;;;;5017052;28;20500;-87
2022/11/19 11:18:10;;;;;;;2.90;1.20;;;;;;;;;;5016630;28;20778;-84
2022/11/19 11:20:37;;;;;;;3.63;1.80;;;;;;;;;;4998918;28;20905;-85
2022/11/19 11:23:05;;;;;;;3.13;1.10;;;;;;;;;;5016172;28;20561;-86
2022/11/19 11:25:31;;;;;;;2.90;1.40;;;;;;;;;;5016509;28;20415;-86
2022/11/19 11:28:09;;;;;;;2.30;0.90;;;;;;;;;;5016368;28;20448;-84
2022/11/19 11:30:35;;;;;;;3.03;1.10;;;;;;;;;;5016239;28;20413;-85
2022/11/19 11:33:20;;;;;;;2.50;1.00;;;;;;;;;;5016294;28;20414;-85
2022/11/19 11:35:46;;;;;;;2.20;0.67;;;;;;;;;;5016405;28;20408;-88
2022/11/19 11:38:12;;;;;;;4.63;1.70;;;;;;;;;;4998234;28;20558;-86
2022/11/19 11:40:38;;;;;;;1.90;0.93;;;;;;;;;;4998525;28;20233;-87
2022/11/19 11:43:04;;;;;;;2.07;0.97;;;;;;;;;;5016049;28;20550;-85
2022/11/19 11:45:34;;;;;;;2.00;0.87;;;;;;;;;;5016165;28;20489;-86
2022/11/19 11:48:05;;;;;;;3.03;1.27;;;;;;;;;;5016080;28;20845;-85
2022/11/19 11:50:31;;;;;;;2.10;0.83;;;;;;;;;;4998516;28;20505;-86
2022/11/19 11:52:57;;;;;;;2.87;0.83;;;;;;;;;;5015740;28;20420;-86
2022/11/19 11:55:23;;;;;;;3.27;1.03;;;;;;;;;;4998366;28;20428;-85
2022/11/19 11:57:53;;;;;;;3.53;1.37;;;;;;;;;;4998362;28;20498;-86
2022/11/19 12:00:30;;;;;;;1.50;1.20;;;;;;;;;;5015835;28;20672;-84
2022/11/19 12:03:06;;;;;;;3.03;1.23;;;;;;;;;;5015061;28;20565;-86
2022/11/19 12:05:51;;;;;;;2.10;1.00;;;;;;;;;;5015733;28;20463;-86
2022/11/19 12:08:23;;;;;;;4.00;1.70;;;;;;;;;;5015313;28;20869;-84
2022/11/19 12:10:49;;;;;;;2.93;1.03;;;;;;;;;;5015640;28;20501;-85
2022/11/19 12:13:37;;;;;;;5.93;1.43;;;;;;;;;;5015569;28;20453;-86
2022/11/19 12:16:08;;;;;;;2.47;1.00;;;;;;;;;;5015494;28;20196;-87
2022/11/19 12:18:42;;;;;;;3.27;0.93;;;;;;;;;;4997932;28;20456;-86
2022/11/19 12:21:14;;;;;;;2.40;0.67;;;;;;;;;;4997916;28;20418;-86
2022/11/19 12:23:46;;;;;;;2.07;1.30;;;;;;;;;;4997488;28;20429;-85
2022/11/19 12:26:19;;;;;;;3.37;0.77;;;;;;;;;;5015237;28;20414;-86
2022/11/19 12:28:51;;;;;;;2.20;0.73;;;;;;;;;;4997761;28;20421;-86
2022/11/19 12:31:20;;;;;;;2.60;1.27;;;;;;;;;;5015273;28;20413;-86
2022/11/19 12:34:05;;;;;;;2.43;0.83;;;;;;;;;;4997611;28;20431;-85
2022/11/19 12:36:37;;;;;;;2.13;1.17;;;;;;;;;;4997634;28;20932;-87
2022/11/19 12:39:09;;;;;;;5.90;1.60;;;;;;;;;;5014801;28;20457;-86
2022/11/19 12:41:35;;;;;;;2.10;1.00;;;;;;;;;;4997599;28;20497;-85
2022/11/19 12:44:03;;;;;;;4.50;0.90;;;;;;;;;;5014997;28;20464;-85
2022/11/19 12:46:44;;;;;;;1.33;0.83;;;;;;;;;;4997228;28;20778;-86
2022/11/19 12:49:10;;;;;;;3.67;1.07;;;;;;;;;;5015120;28;20452;-86
2022/11/19 12:51:42;;;;;;;3.33;0.50;;;;;;;;;;5014992;28;20426;-87
2022/11/19 12:54:17;;;;;;;4.10;1.30;;;;;;;;;;5014628;28;20953;-87
2022/11/19 12:56:46;;;;;;;1.33;0.50;;;;;;;;;;5014895;28;20454;-88
2022/11/19 12:59:23;;;;;;;2.90;0.83;;;;;;;;;;5014847;28;20773;-87
2022/11/19 13:01:50;;;;;;;1.20;0.50;;;;;;;;;;5014815;28;20469;-87
2022/11/19 13:04:26;;;;;;;2.93;0.80;;;;;;;;;;5014734;28;20413;-88
2022/11/19 13:07:01;;;;;;;3.23;0.80;;;;;;;;;;5014692;28;20905;-87
2022/11/19 13:09:46;;;;;;;2.77;0.40;;;;;;;;;;4997253;28;20460;-87
2022/11/19 13:12:13;;;;;;;1.50;0.70;;;;;;;;;;5014826;28;20812;-87
2022/11/19 13:14:41;;;;;;;1.00;0.40;;;;;;;;;;5013635;28;20426;-87
2022/11/19 13:17:18;;;;;;;2.23;0.50;;;;;;;;;;5014490;28;20471;-87
2022/11/19 13:19:48;;;;;;;1.27;0.20;;;;;;;;;;4996998;28;20412;-87
2022/11/19 13:22:23;;;;;;;1.60;0.30;;;;;;;;;;5014042;28;20535;-87
2022/11/19 13:24:53;;;;;;;1.87;0.40;;;;;;;;;;5014450;28;20758;-88
2022/11/19 13:27:22;;;;;;;1.80;0.20;;;;;;;;;;5014375;28;20874;-87
2022/11/19 13:30:00;;;;;;;1.50;0.30;;;;;;;;;;5014415;28;20555;-87
2022/11/19 13:32:29;;;;;;;0.73;0.30;;;;;;;;;;5014329;28;20810;-87
2022/11/19 13:35:31;;;;;;;0.70;0.20;;;;;;;;;;4996602;28;20424;-88
2022/11/19 13:37:57;;;;;;;0.50;0.20;;;;;;;;;;4972829;28;20437;-88
2022/11/19 13:40:36;;;;;;;1.20;0.30;;;;;;;;;;5005779;28;20554;-87
2022/11/19 13:45:52;;;;;;;0.90;0.20;;;;;;;;;;5014254;28;20923;-85
2022/11/19 13:48:30;;;;;;;2.17;0.40;;;;;;;;;;4996740;28;20515;-88
2022/11/19 13:50:59;;;;;;;3.63;0.37;;;;;;;;;;5014125;28;20409;-88
2022/11/19 13:53:38;;;;;;;1.33;0.33;;;;;;;;;;4996132;28;20825;-88
2022/11/19 13:56:11;;;;;;;1.90;0.27;;;;;;;;;;5014051;28;20520;-87
2022/11/19 13:58:37;;;;;;;1.17;0.50;;;;;;;;;;5014183;28;20449;-87
2022/11/19 14:01:12;;;;;;;0.67;0.20;;;;;;;;;;4996314;28;20853;-88
2022/11/19 14:03:51;;;;;;;1.53;0.20;;;;;;;;;;5013802;28;20424;-88
2022/11/19 14:06:23;;;;;;;4.80;0.47;;;;;;;;;;5013842;28;20459;-86
2022/11/19 14:08:55;;;;;;;1.13;0.23;;;;;;;;;;5013563;28;20503;-88
2022/11/19 14:11:40;;;;;;;1.70;0.47;;;;;;;;;;4996103;28;20475;-87
2022/11/19 14:26:18;;;;;;;3.63;0.30;;;;;;;;;;4995947;28;20503;-87
2022/11/19 14:28:41;;;;;;;1.30;0.50;;;;;;;;;;5020308;28;20773;-88
2022/11/19 14:31:07;;;;;;;2.60;0.53;;;;;;;;;;5020175;28;20420;-88
2022/11/19 14:33:42;;;;;;;1.13;0.37;;;;;;;;;;5002417;28;20541;-88
2022/11/19 14:36:12;;;;;;;1.33;0.20;;;;;;;;;;5002546;28;20505;-88
2022/11/19 14:38:40;;;;;;;1.27;0.70;;;;;;;;;;5019674;28;20422;-88
2022/11/19 14:41:14;;;;;;;2.50;0.80;;;;;;;;;;5019789;28;20462;-87
2022/11/19 14:44:07;;;;;;;2.57;0.77;;;;;;;;;;5002528;28;20489;-88
2022/11/19 14:46:33;;;;;;;1.60;0.73;;;;;;;;;;5002684;28;20549;-88
2022/11/19 14:49:00;;;;;;;1.47;0.60;;;;;;;;;;5002357;28;20434;-88
2022/11/19 14:51:32;;;;;;;1.33;0.57;;;;;;;;;;5002405;28;20430;-88
2022/11/19 14:54:05;;;;;;;1.60;0.37;;;;;;;;;;5019782;28;20418;-88
2022/11/19 14:56:31;;;;;;;2.37;0.40;;;;;;;;;;5002412;28;20415;-88
2022/11/19 14:59:09;;;;;;;2.83;0.73;;;;;;;;;;5020112;28;20768;-87
2022/11/19 15:01:47;;;;;;;1.10;0.30;;;;;;;;;;5019948;28;20470;-87
2022/11/19 15:04:15;;;;;;;0.80;0.20;;;;;;;;;;5020093;28;20407;-88
2022/11/19 15:06:44;;;;;;;1.83;0.33;;;;;;;;;;5019757;28;20419;-88
2022/11/19 15:09:10;;;;;;;0.80;0.40;;;;;;;;;;5002597;28;20415;-88
2022/11/19 15:11:54;;;;;;;1.30;1.10;;;;;;;;;;5020146;28;20603;-88
2022/11/19 15:14:37;;;;;;;1.00;0.30;;;;;;;;;;5020070;28;20461;-88
2022/11/19 15:17:03;;;;;;;1.70;0.47;;;;;;;;;;5002769;28;20426;-88
2022/11/19 15:19:38;;;;;;;2.93;0.40;;;;;;;;;;5019826;28;20489;-87
2022/11/19 15:22:14;;;;;;;0.93;0.67;;;;;;;;;;5019405;28;20465;-86
2022/11/19 15:24:47;;;;;;;0.73;0.27;;;;;;;;;;5019425;28;20407;-86
2022/11/19 15:27:16;;;;;;;2.53;0.63;;;;;;;;;;5019724;28;20414;-88
2022/11/19 15:29:55;;;;;;;1.60;0.50;;;;;;;;;;5019479;28;20496;-84
2022/11/19 15:32:40;;;;;;;1.50;0.70;;;;;;;;;;5019329;28;20406;-84
2022/11/19 15:35:24;;;;;;;2.83;0.97;;;;;;;;;;5019202;28;20411;-83
2022/11/19 15:37:53;;;;;;;2.60;0.30;;;;;;;;;;5016274;28;20421;-84
2022/11/19 15:40:22;;;;;;;1.63;0.37;;;;;;;;;;5015909;28;20458;-84